Time;durP1;ratioP1;P1;durP2;ratioP2;P2;SDS_P1;SDS_P2;PMS_P1;PMS_P2;Temp;Humidity;BMP_temperature;BMP_pressure;BME280_temperature;BME280_humidity;BME280_pressure;Samples;Min_cycle;Max_cycle;Signal;HPM_P1;HPM_P2
2022/07/16 00:03:06;;;;;;;8.48;2.33;;;15.30;99.90;;;;;;5081297;28;20052;-54
2022/07/16 00:05:32;;;;;;;5.43;2.28;;;15.30;99.90;;;;;;5080958;28;20066;-54
2022/07/16 00:07:58;;;;;;;9.32;2.53;;;15.30;99.90;;;;;;5081029;28;20532;-53
2022/07/16 00:10:26;;;;;;;6.40;2.83;;;15.50;99.90;;;;;;5080960;28;20047;-52
2022/07/16 00:12:52;;;;;;;4.57;1.92;;;15.10;99.90;;;;;;5065324;28;20144;-54
2022/07/16 00:15:17;;;;;;;6.00;2.50;;;15.50;99.90;;;;;;5080881;28;20043;-54
2022/07/16 00:17:45;;;;;;;4.80;2.30;;;15.10;99.90;;;;;;5062026;28;20051;-53
2022/07/16 00:20:11;;;;;;;6.97;3.05;;;16.50;99.90;;;;;;5080413;28;20047;-54
2022/07/16 00:22:36;;;;;;;6.18;2.47;;;16.30;99.90;;;;;;5080571;28;20512;-55
2022/07/16 00:25:05;;;;;;;4.40;2.33;;;15.20;99.90;;;;;;5062379;28;20097;-50
2022/07/16 00:27:31;;;;;;;6.45;2.63;;;15.40;99.90;;;;;;5080280;28;20040;-55
2022/07/16 00:29:57;;;;;;;5.43;2.65;;;16.10;99.90;;;;;;5080305;28;20048;-54
2022/07/16 00:32:22;;;;;;;7.25;2.80;;;15.40;99.90;;;;;;5080851;28;20043;-54
2022/07/16 00:34:48;;;;;;;4.38;2.03;;;16.70;99.90;;;;;;5079638;28;20598;-53
2022/07/16 00:37:14;;;;;;;6.45;2.70;;;16.80;99.90;;;;;;5079562;28;20048;-50
2022/07/16 00:39:40;;;;;;;5.43;2.50;;;16.80;99.90;;;;;;5079578;28;20039;-48
2022/07/16 00:42:07;;;;;;;7.75;2.72;;;16.30;99.90;;;;;;5079902;28;20048;-50
2022/07/16 00:44:33;;;;;;;7.55;2.72;;;15.30;99.90;;;;;;5080234;28;20699;-50
2022/07/16 00:46:58;;;;;;;6.72;2.78;;;16.40;99.90;;;;;;5079518;28;20219;-49
2022/07/16 00:49:24;;;;;;;8.93;1.90;;;15.40;99.90;;;;;;5079904;28;20048;-49
2022/07/16 00:51:52;;;;;;;6.82;2.00;;;15.40;99.90;;;;;;5079415;28;20043;-50
2022/07/16 00:54:20;;;;;;;6.78;1.80;;;15.20;99.90;;;;;;5079634;28;20056;-51
2022/07/16 00:56:46;;;;;;;7.35;2.03;;;15.70;99.90;;;;;;5080180;28;20028;-51
2022/07/16 00:59:13;;;;;;;4.57;1.88;;;15.50;99.90;;;;;;5080289;28;20044;-52
2022/07/16 01:01:39;;;;;;;6.53;1.90;;;15.20;99.90;;;;;;5079494;28;20078;-49
2022/07/16 01:04:06;;;;;;;6.43;2.17;;;15.20;99.90;;;;;;5079952;28;20097;-49
2022/07/16 01:06:33;;;;;;;4.82;1.65;;;16.00;99.90;;;;;;5079900;28;20158;-51
2022/07/16 01:09:01;;;;;;;6.95;1.63;;;15.20;99.90;;;;;;5080445;28;20310;-49
2022/07/16 01:11:29;;;;;;;6.15;1.80;;;15.00;99.90;;;;;;5079792;28;20044;-49
2022/07/16 01:13:55;;;;;;;4.22;1.63;;;15.00;99.90;;;;;;5080440;28;20071;-50
2022/07/16 01:16:22;;;;;;;3.78;1.50;;;16.10;99.90;;;;;;5080008;28;20127;-47
2022/07/16 01:18:48;;;;;;;9.32;2.10;;;15.80;99.90;;;;;;5079649;28;20051;-46
2022/07/16 01:21:15;;;;;;;8.05;2.00;;;14.90;99.90;;;;;;5079933;28;20063;-47
2022/07/16 01:23:47;;;;;;;10.55;2.30;;;15.10;99.90;;;;;;5079317;28;20131;-47
2022/07/16 01:26:13;;;;;;;8.63;2.70;;;14.90;99.90;;;;;;5079660;28;20540;-49
2022/07/16 01:28:38;;;;;;;9.77;2.75;;;16.70;99.90;;;;;;5080072;28;20233;-50
2022/07/16 01:31:04;;;;;;;7.70;2.40;;;14.90;99.90;;;;;;5078780;28;20043;-47
2022/07/16 01:33:36;;;;;;;7.63;2.78;;;15.00;99.90;;;;;;5079713;28;20139;-46
2022/07/16 01:36:11;;;;;;;7.75;2.20;;;15.00;99.90;;;;;;5077982;28;20504;-52
2022/07/16 01:38:39;;;;;;;7.00;2.17;;;14.90;99.90;;;;;;5078803;28;20080;-49
2022/07/16 01:41:05;;;;;;;7.07;2.00;;;14.80;99.90;;;;;;5078294;28;20726;-49
2022/07/16 01:43:33;;;;;;;8.13;2.55;;;15.10;99.90;;;;;;5078970;28;20156;-51
2022/07/16 01:45:59;;;;;;;10.00;2.42;;;16.20;99.90;;;;;;5079133;28;20115;-51
2022/07/16 01:48:25;;;;;;;8.45;1.80;;;14.90;99.90;;;;;;5078900;28;20036;-50
2022/07/16 01:50:53;;;;;;;9.40;2.78;;;15.50;99.90;;;;;;5079275;28;20036;-51
2022/07/16 01:53:19;;;;;;;11.50;2.67;;;14.70;99.90;;;;;;5079433;28;20052;-51
2022/07/16 01:55:46;;;;;;;9.98;2.47;;;14.80;99.90;;;;;;5079519;28;20046;-49
2022/07/16 01:58:13;;;;;;;8.30;2.03;;;15.00;99.90;;;;;;5079285;28;20037;-52
2022/07/16 02:00:41;;;;;;;8.23;2.17;;;15.00;99.90;;;;;;5061025;28;20083;-47
2022/07/16 02:03:09;;;;;;;9.45;2.08;;;16.10;99.90;;;;;;5079535;28;21051;-49
2022/07/16 02:05:35;;;;;;;7.63;2.10;;;15.00;99.90;;;;;;5063365;28;20052;-49
2022/07/16 02:08:01;;;;;;;6.43;1.73;;;14.70;99.90;;;;;;5083267;28;20044;-50
2022/07/16 02:10:30;;;;;;;6.43;1.88;;;15.80;99.90;;;;;;5082723;28;20636;-49
2022/07/16 02:12:57;;;;;;;6.00;1.75;;;14.80;99.90;;;;;;5082481;28;20497;-48
2022/07/16 02:15:23;;;;;;;9.02;2.50;;;15.00;99.90;;;;;;5083241;28;20481;-52
2022/07/16 02:17:49;;;;;;;8.55;1.70;;;14.50;99.90;;;;;;5082768;28;20139;-50
2022/07/16 02:20:14;;;;;;;8.10;1.77;;;14.70;99.90;;;;;;5082911;28;20040;-48
2022/07/16 02:22:40;;;;;;;7.45;1.77;;;15.10;99.90;;;;;;5083383;28;20595;-50
2022/07/16 02:25:07;;;;;;;5.47;1.42;;;14.60;99.90;;;;;;5082698;28;20040;-53
2022/07/16 02:27:34;;;;;;;8.60;2.13;;;14.50;99.90;;;;;;5082933;28;20084;-50
2022/07/16 02:29:59;;;;;;;6.05;1.58;;;14.50;99.90;;;;;;5082898;28;20055;-49
2022/07/16 02:32:27;;;;;;;6.03;1.90;;;15.00;99.90;;;;;;5065028;28;20052;-52
2022/07/16 02:34:55;;;;;;;5.72;1.50;;;14.50;99.90;;;;;;5065377;28;20550;-49
2022/07/16 02:37:21;;;;;;;6.28;1.60;;;14.80;99.90;;;;;;5082966;28;20051;-51
2022/07/16 02:39:46;;;;;;;6.70;1.50;;;14.20;99.90;;;;;;5082600;28;20052;-50
2022/07/16 02:42:12;;;;;;;5.15;1.52;;;15.00;99.90;;;;;;5082945;28;20516;-46
2022/07/16 02:44:38;;;;;;;4.90;1.58;;;15.50;99.90;;;;;;5083293;28;20051;-49
2022/07/16 02:47:03;;;;;;;5.97;1.25;;;14.40;99.90;;;;;;5063889;28;20052;-50
2022/07/16 02:49:29;;;;;;;6.95;1.30;;;14.20;99.90;;;;;;5082477;28;20084;-50
2022/07/16 02:51:54;;;;;;;4.10;1.35;;;14.20;99.90;;;;;;5082385;28;20048;-48
2022/07/16 02:54:20;;;;;;;6.43;1.77;;;15.70;99.90;;;;;;5082286;28;20283;-47
2022/07/16 02:56:46;;;;;;;4.55;1.52;;;14.10;99.90;;;;;;5082545;28;20518;-50
2022/07/16 02:59:13;;;;;;;5.50;1.70;;;15.80;99.90;;;;;;5082522;28;20044;-50
2022/07/16 03:01:39;;;;;;;7.93;1.83;;;14.20;99.90;;;;;;5081598;28;20164;-51
2022/07/16 03:04:05;;;;;;;7.75;1.50;;;14.40;99.90;;;;;;5082497;28;20115;-51
2022/07/16 03:06:32;;;;;;;6.40;1.63;;;15.00;99.90;;;;;;5081895;28;20127;-47
2022/07/16 03:08:58;;;;;;;8.52;1.92;;;14.00;99.90;;;;;;5082323;28;20102;-49
2022/07/16 03:11:23;;;;;;;7.00;1.67;;;14.00;99.90;;;;;;5081892;28;20760;-48
2022/07/16 03:13:49;;;;;;;7.72;1.73;;;14.50;99.90;;;;;;5082316;28;20048;-49
2022/07/16 03:16:15;;;;;;;7.05;1.83;;;13.90;99.90;;;;;;5080914;28;20048;-49
2022/07/16 03:18:40;;;;;;;6.85;1.70;;;13.60;99.90;;;;;;5081825;28;20048;-49
2022/07/16 03:21:06;;;;;;;7.32;1.60;;;13.70;99.90;;;;;;5081366;28;20079;-50
2022/07/16 03:23:32;;;;;;;3.20;1.30;;;15.60;99.90;;;;;;5081910;28;20154;-52
2022/07/16 03:25:57;;;;;;;7.25;1.70;;;13.80;99.90;;;;;;5063139;28;20070;-51
2022/07/16 03:28:25;;;;;;;9.85;1.60;;;13.60;99.90;;;;;;5081972;28;20043;-50
2022/07/16 03:30:51;;;;;;;4.93;1.50;;;15.60;99.90;;;;;;5081017;28;20047;-50
2022/07/16 03:33:16;;;;;;;8.45;1.75;;;14.50;99.90;;;;;;5063608;28;20058;-50
2022/07/16 03:35:42;;;;;;;9.40;2.03;;;13.30;99.90;;;;;;5082198;28;20489;-52
2022/07/16 03:40:53;;;;;;;7.97;1.90;;;13.50;99.90;;;;;;5027689;28;20073;-50
2022/07/16 03:43:19;;;;;;;7.53;1.60;;;13.60;99.90;;;;;;5023158;28;20045;-47
2022/07/16 03:45:46;;;;;;;9.85;2.30;;;13.40;99.90;;;;;;5021382;28;20049;-52
2022/07/16 03:48:12;;;;;;;6.22;1.83;;;14.40;99.90;;;;;;5025425;28;20049;-51
2022/07/16 03:50:37;;;;;;;6.55;2.47;;;13.90;99.90;;;;;;5026465;28;20037;-53
2022/07/16 03:53:05;;;;;;;10.43;2.03;;;14.40;99.90;;;;;;5020682;28;20050;-51
2022/07/16 03:55:31;;;;;;;5.50;2.00;;;13.60;99.90;;;;;;5022242;28;20461;-49
2022/07/16 03:57:56;;;;;;;10.23;2.15;;;14.50;99.90;;;;;;5026317;28;20053;-53
2022/07/16 04:00:24;;;;;;;11.27;1.77;;;14.50;99.90;;;;;;5023084;28;20049;-51
2022/07/16 04:02:51;;;;;;;7.00;1.80;;;13.60;99.90;;;;;;5022764;28;20088;-48
2022/07/16 04:05:17;;;;;;;7.10;2.05;;;13.60;99.90;;;;;;5023761;28;20658;-57
2022/07/16 04:07:42;;;;;;;9.02;2.00;;;14.50;99.90;;;;;;5026206;28;20037;-52
2022/07/16 04:10:08;;;;;;;7.20;2.10;;;13.70;99.90;;;;;;5028917;28;20045;-49
2022/07/16 04:12:34;;;;;;;10.85;1.75;;;13.50;99.90;;;;;;5029480;28;20046;-52
2022/07/16 04:15:00;;;;;;;10.02;2.50;;;14.00;99.90;;;;;;5021372;28;20057;-51
2022/07/16 04:17:26;;;;;;;7.95;1.77;;;14.60;99.90;;;;;;5042375;28;20129;-52
2022/07/16 04:19:53;;;;;;;9.40;1.80;;;13.70;99.90;;;;;;5081156;28;20043;-52
2022/07/16 04:22:19;;;;;;;7.43;2.15;;;13.60;99.90;;;;;;5061043;28;20091;-51
2022/07/16 04:24:45;;;;;;;12.45;2.03;;;13.70;99.90;;;;;;5080320;28;20181;-51
2022/07/16 04:27:10;;;;;;;7.50;1.52;;;13.70;99.90;;;;;;5079895;28;20084;-53
2022/07/16 04:29:36;;;;;;;6.55;2.13;;;13.50;99.90;;;;;;5080856;28;20145;-52
2022/07/16 04:32:02;;;;;;;7.25;1.95;;;13.70;99.90;;;;;;5080009;28;20048;-53
2022/07/16 04:34:28;;;;;;;9.93;1.92;;;13.70;99.90;;;;;;5080054;28;20067;-51
2022/07/16 04:36:53;;;;;;;6.55;1.35;;;13.70;99.90;;;;;;5080139;28;20044;-53
2022/07/16 04:39:19;;;;;;;4.78;1.42;;;13.60;99.90;;;;;;5079333;28;20089;-53
2022/07/16 04:41:46;;;;;;;9.20;1.83;;;13.70;99.90;;;;;;5079554;28;20132;-51
2022/07/16 04:44:12;;;;;;;5.97;1.67;;;14.60;99.90;;;;;;5080233;28;20121;-52
2022/07/16 04:46:38;;;;;;;8.25;1.50;;;13.80;99.90;;;;;;5080429;28;20515;-52
2022/07/16 04:49:03;;;;;;;9.48;2.28;;;13.80;99.90;;;;;;5080303;28;20048;-52
2022/07/16 04:51:29;;;;;;;10.05;1.88;;;13.80;99.90;;;;;;5079855;28;20044;-52
2022/07/16 04:53:55;;;;;;;14.43;1.83;;;14.30;99.90;;;;;;5079664;28;20101;-49
2022/07/16 04:56:20;;;;;;;8.10;1.42;;;14.20;99.90;;;;;;5080106;28;20048;-51
2022/07/16 04:58:46;;;;;;;6.25;1.73;;;14.00;99.90;;;;;;5078880;28;20173;-52
2022/07/16 05:01:11;;;;;;;8.02;1.52;;;14.20;99.90;;;;;;5080309;28;20048;-53
2022/07/16 05:03:37;;;;;;;9.07;1.75;;;14.60;99.90;;;;;;5080425;28;20052;-49
2022/07/16 05:06:03;;;;;;;9.85;1.63;;;15.80;99.90;;;;;;5080212;28;20090;-51
2022/07/16 05:08:29;;;;;;;4.75;1.30;;;13.90;99.90;;;;;;5079701;28;20063;-52
2022/07/16 05:10:54;;;;;;;9.20;1.67;;;15.20;99.90;;;;;;5079806;28;20122;-51
2022/07/16 05:13:20;;;;;;;7.68;1.45;;;14.10;99.90;;;;;;5080034;28;20127;-50
2022/07/16 05:15:46;;;;;;;6.88;1.55;;;14.00;99.90;;;;;;5080229;28;20088;-53
2022/07/16 05:18:12;;;;;;;6.90;1.20;;;14.10;99.90;;;;;;5079875;28;20047;-52
2022/07/16 05:20:39;;;;;;;10.02;1.45;;;16.30;99.90;;;;;;5044272;28;20322;-49
2022/07/16 05:23:05;;;;;;;8.20;1.17;;;16.40;99.90;;;;;;5079686;28;20036;-49
2022/07/16 05:25:31;;;;;;;7.15;1.02;;;14.30;99.90;;;;;;5079534;28;20117;-52
2022/07/16 05:27:56;;;;;;;9.95;1.67;;;14.60;99.90;;;;;;5080280;28;20058;-53
2022/07/16 05:30:22;;;;;;;8.45;1.38;;;16.40;99.90;;;;;;5080339;28;20431;-49
2022/07/16 05:32:50;;;;;;;8.88;1.48;;;15.10;99.90;;;;;;5079522;28;20094;-52
2022/07/16 05:35:16;;;;;;;4.60;0.93;;;16.30;99.90;;;;;;5079344;28;20634;-52
2022/07/16 05:37:43;;;;;;;5.57;1.00;;;15.40;99.90;;;;;;5079035;28;20411;-51
2022/07/16 05:40:10;;;;;;;13.68;1.35;;;14.90;99.90;;;;;;5083913;28;20048;-51
2022/07/16 05:42:36;;;;;;;8.63;1.73;;;15.10;99.90;;;;;;5083332;28;20055;-51
2022/07/16 05:45:04;;;;;;;6.00;1.20;;;17.20;99.90;;;;;;5083314;28;20402;-52
2022/07/16 05:47:32;;;;;;;7.68;0.93;;;15.30;99.90;;;;;;5081726;28;20040;-52
2022/07/16 05:49:57;;;;;;;10.77;1.27;;;15.20;99.90;;;;;;5081735;28;20048;-52
2022/07/16 05:52:23;;;;;;;8.27;1.20;;;15.30;99.50;;;;;;5076292;28;20043;-52
2022/07/16 05:54:49;;;;;;;7.78;1.00;;;15.80;98.60;;;;;;5075214;28;20048;-51
2022/07/16 05:57:14;;;;;;;7.65;1.40;;;15.50;97.50;;;;;;5074156;28;20046;-50
2022/07/16 05:59:40;;;;;;;6.68;1.30;;;16.30;96.30;;;;;;5076417;28;20095;-50
2022/07/16 06:02:07;;;;;;;5.55;1.05;;;15.70;96.10;;;;;;5077137;28;20175;-52
2022/07/16 06:04:32;;;;;;;7.68;1.15;;;15.60;96.10;;;;;;5076114;28;20538;-48
2022/07/16 06:06:59;;;;;;;7.70;2.20;;;17.30;95.50;;;;;;5076748;28;20040;-48
2022/07/16 06:09:24;;;;;;;7.53;1.00;;;17.30;87.80;;;;;;5076888;28;20054;-53
2022/07/16 06:11:50;;;;;;;8.30;1.27;;;16.10;60.70;;;;;;5077803;28;20036;-50
2022/07/16 06:14:16;;;;;;;6.60;0.90;;;16.00;65.80;;;;;;5076386;28;20460;-53
2022/07/16 06:16:43;;;;;;;4.32;0.80;;;17.50;44.80;;;;;;5094307;27;20100;-52
2022/07/16 06:19:09;;;;;;;6.53;1.20;;;16.60;11.70;;;;;;5074325;28;20052;-50
2022/07/16 06:21:35;;;;;;;7.45;1.50;;;16.40;10.50;;;;;;5076288;28;20138;-52
2022/07/16 06:24:03;;;;;;;10.32;1.75;;;16.40;6.80;;;;;;5077666;28;20047;-52
2022/07/16 06:26:28;;;;;;;8.70;1.40;;;17.50;1.00;;;;;;5076337;28;20111;-48
2022/07/16 06:28:54;;;;;;;7.15;0.90;;;17.30;3.90;;;;;;5075779;28;20036;-54
2022/07/16 06:31:20;;;;;;;7.20;1.20;;;17.20;1.00;;;;;;5075347;28;20043;-53
2022/07/16 06:33:46;;;;;;;7.60;1.50;;;17.50;1.00;;;;;;5075181;28;20523;-51
2022/07/16 06:36:11;;;;;;;3.65;0.80;;;17.90;1.00;;;;;;5076418;28;20048;-51
2022/07/16 06:38:37;;;;;;;8.68;1.27;;;19.10;1.00;;;;;;5076522;28;20455;-52
2022/07/16 06:41:04;;;;;;;4.00;0.77;;;17.80;1.00;;;;;;5076311;28;20098;-52
2022/07/16 06:43:30;;;;;;;6.53;1.00;;;17.70;99.90;;;;;;5076076;28;20172;-53
2022/07/16 06:45:56;;;;;;;4.97;0.90;;;17.60;1.00;;;;;;5076497;28;20505;-53
2022/07/16 06:48:22;;;;;;;6.10;0.90;;;17.40;99.90;;;;;;5076785;28;20623;-50
2022/07/16 06:50:48;;;;;;;4.22;1.08;;;17.20;99.90;;;;;;5075459;28;20048;-52
2022/07/16 06:53:14;;;;;;;7.13;0.80;;;16.80;99.90;;;;;;5075256;28;20058;-52
2022/07/16 06:55:39;;;;;;;9.15;1.15;;;17.20;99.90;;;;;;5076278;28;20075;-51
2022/07/16 06:58:05;;;;;;;6.15;1.27;;;17.10;99.90;;;;;;5075848;28;20720;-53
2022/07/16 07:00:31;;;;;;;5.88;1.00;;;17.70;99.90;;;;;;5076508;28;20042;-55
2022/07/16 07:02:56;;;;;;;7.22;1.10;;;20.10;99.90;;;;;;5075342;28;20288;-54
2022/07/16 07:05:22;;;;;;;8.73;1.40;;;20.40;1.00;;;;;;5055863;28;20063;-52
2022/07/16 07:07:48;;;;;;;10.77;1.13;;;20.00;1.00;;;;;;5076372;28;20067;-54
2022/07/16 07:10:13;;;;;;;8.07;1.25;;;20.60;99.90;;;;;;5075995;28;20047;-51
2022/07/16 07:12:39;;;;;;;3.65;0.80;;;21.60;99.90;;;;;;5074841;28;20043;-50
2022/07/16 07:15:05;;;;;;;5.65;1.13;;;22.40;99.90;;;;;;5075806;28;20405;-53
2022/07/16 07:17:34;;;;;;;7.22;1.30;;;22.60;99.90;;;;;;5076958;28;20050;-50
2022/07/16 07:19:59;;;;;;;7.95;1.20;;;23.10;99.90;;;;;;5060337;28;20531;-52
2022/07/16 07:22:25;;;;;;;6.47;1.48;;;22.50;8.10;;;;;;5075432;28;20044;-53
2022/07/16 07:24:54;;;;;;;4.72;1.00;;;24.20;1.00;;;;;;5091296;28;20036;-53
2022/07/16 07:27:20;;;;;;;3.65;0.65;;;24.60;99.90;;;;;;5075233;28;20044;-55
2022/07/16 07:29:46;;;;;;;5.18;1.00;;;24.60;99.90;;;;;;5092119;28;20044;-53
2022/07/16 07:32:12;;;;;;;6.85;1.13;;;24.70;99.90;;;;;;5075781;28;20048;-53
2022/07/16 07:34:37;;;;;;;6.63;0.90;;;24.50;99.90;;;;;;5075689;28;20029;-54
2022/07/16 07:37:03;;;;;;;4.38;1.02;;;23.40;99.90;;;;;;5074873;28;20044;-53
2022/07/16 07:39:28;;;;;;;4.93;0.95;;;21.90;99.90;;;;;;5076403;28;20122;-49
2022/07/16 07:41:54;;;;;;;7.20;1.20;;;20.90;99.90;;;;;;5076031;28;20299;-52
2022/07/16 07:44:20;;;;;;;5.72;0.93;;;21.40;99.90;;;;;;5076385;28;20432;-54
2022/07/16 07:46:47;;;;;;;6.80;1.00;;;21.10;99.90;;;;;;5076288;28;20075;-53
2022/07/16 07:49:13;;;;;;;5.80;1.10;;;22.10;99.90;;;;;;5076120;28;20504;-54
2022/07/16 07:51:38;;;;;;;7.47;1.33;;;21.50;99.90;;;;;;5075632;28;20142;-52
2022/07/16 07:54:05;;;;;;;3.08;0.80;;;21.30;99.90;;;;;;5075944;28;20131;-54
2022/07/16 07:56:31;;;;;;;8.00;1.10;;;21.40;99.90;;;;;;5076065;28;20684;-54
2022/07/16 07:58:56;;;;;;;5.10;0.80;;;22.30;99.90;;;;;;5074763;28;20040;-54
2022/07/16 08:01:22;;;;;;;4.78;1.30;;;22.80;99.90;;;;;;5073596;28;20039;-55
2022/07/16 08:03:48;;;;;;;4.50;1.00;;;23.70;99.90;;;;;;5073402;28;20439;-55
2022/07/16 08:06:13;;;;;;;5.55;0.88;;;24.20;99.90;;;;;;5073023;28;20040;-53
2022/07/16 08:08:41;;;;;;;6.50;0.98;;;23.90;99.90;;;;;;5073197;28;20123;-54
2022/07/16 08:11:08;;;;;;;5.18;0.95;;;23.50;94.70;;;;;;5073956;28;20050;-54
2022/07/16 08:13:33;;;;;;;5.65;1.10;;;22.80;73.70;;;;;;5075657;28;20109;-53
2022/07/16 08:15:59;;;;;;;6.15;1.33;;;22.20;91.10;;;;;;5074084;28;20036;-54
2022/07/16 08:18:25;;;;;;;5.10;0.95;;;21.30;97.40;;;;;;5075505;28;20081;-53
2022/07/16 08:20:50;;;;;;;5.25;0.80;;;20.60;99.90;;;;;;5075477;28;20105;-54
2022/07/16 08:25:44;;;;;;;5.55;1.00;;;20.10;99.90;;;;;;5073771;28;20036;-53
2022/07/16 08:26:02;;;;;;;6.18;1.20;;;20.40;99.90;;;;;;5073757;28;20873;-51
2022/07/16 08:28:27;;;;;;;8.63;1.20;;;19.40;99.90;;;;;;5088666;27;20526;-49
2022/07/16 08:30:53;;;;;;;5.85;1.13;;;19.10;99.90;;;;;;5073756;28;20409;-50
2022/07/16 08:33:19;;;;;;;6.85;1.55;;;18.80;99.90;;;;;;5072718;28;20043;-52
2022/07/16 08:35:46;;;;;;;4.15;0.98;;;18.50;99.90;;;;;;5072283;28;20047;-51
2022/07/16 08:38:12;;;;;;;6.68;1.02;;;19.70;1.00;;;;;;5074508;28;20786;-51
2022/07/16 08:40:42;;;;;;;5.55;0.98;;;18.00;1.00;;;;;;5074472;28;20040;-52
2022/07/16 08:43:09;;;;;;;9.38;1.42;;;20.60;99.90;;;;;;5073329;28;20044;-54
2022/07/16 08:45:36;;;;;;;9.40;1.13;;;22.30;99.90;;;;;;5072641;28;20031;-54
2022/07/16 08:48:02;;;;;;;10.40;1.40;;;23.10;99.90;;;;;;5072066;28;20375;-55
2022/07/16 08:50:28;;;;;;;6.07;1.20;;;21.00;99.90;;;;;;5074308;28;20044;-52
2022/07/16 08:52:57;;;;;;;5.72;1.20;;;20.70;44.70;;;;;;5073963;28;20600;-52
2022/07/16 08:55:24;;;;;;;6.20;1.20;;;20.00;73.20;;;;;;5073996;28;20093;-53
2022/07/16 08:57:50;;;;;;;8.00;0.98;;;20.20;90.90;;;;;;5054637;28;20413;-55
2022/07/16 09:00:17;;;;;;;5.03;0.90;;;20.50;86.20;;;;;;5074474;28;21041;-50
2022/07/16 09:02:45;;;;;;;6.97;1.30;;;20.80;31.30;;;;;;5072668;28;20409;-53
2022/07/16 09:05:11;;;;;;;6.65;1.00;;;20.20;1.00;;;;;;5074205;28;20059;-50
2022/07/16 09:07:37;;;;;;;6.03;1.20;;;20.50;1.00;;;;;;5073814;28;20493;-51
2022/07/16 09:10:08;;;;;;;7.82;1.17;;;21.10;1.00;;;;;;5072977;28;20404;-52
2022/07/16 09:12:46;;;;;;;8.15;1.10;;;21.60;1.00;;;;;;5071522;28;20508;-54
2022/07/16 09:15:26;;;;;;;8.13;1.20;;;22.10;1.00;;;;;;5075023;28;20052;-52
2022/07/16 09:18:22;;;;;;;5.20;1.02;;;21.50;99.90;;;;;;5090007;28;20129;-52
2022/07/16 09:21:02;;;;;;;6.70;1.05;;;21.20;99.90;;;;;;5071049;28;20048;-55
2022/07/16 09:23:28;;;;;;;5.88;0.85;;;21.10;99.90;;;;;;5072717;28;20504;-49
2022/07/16 09:25:57;;;;;;;7.70;1.05;;;20.40;99.90;;;;;;5074085;28;20047;-54
2022/07/16 09:28:24;;;;;;;6.15;1.17;;;20.10;99.90;;;;;;5054611;28;20416;-54
2022/07/16 09:30:52;;;;;;;7.20;1.35;;;20.30;99.90;;;;;;5072564;28;20036;-53
2022/07/16 09:33:20;;;;;;;8.73;1.25;;;20.10;99.90;;;;;;5073365;28;20032;-55
2022/07/16 09:35:48;;;;;;;5.97;1.20;;;20.30;99.90;;;;;;5073045;28;20102;-56
2022/07/16 09:38:14;;;;;;;7.28;1.00;;;20.30;99.90;;;;;;5072572;28;20056;-56
2022/07/16 09:40:40;;;;;;;7.43;1.38;;;20.40;99.90;;;;;;5074647;28;20046;-54
2022/07/16 09:43:11;;;;;;;9.20;1.52;;;20.70;99.90;;;;;;5055136;28;20071;-54
2022/07/16 09:45:41;;;;;;;11.32;1.35;;;20.90;99.90;;;;;;5072826;28;20036;-55
2022/07/16 09:48:23;;;;;;;8.30;1.38;;;21.00;99.90;;;;;;5074062;28;20040;-56
2022/07/16 09:50:51;;;;;;;;;;;21.50;1.00;;;;;;5056061;28;21780;-54
2022/07/16 09:53:24;;;;;;;6.53;1.40;;;21.50;1.00;;;;;;5054420;28;19930;-55
2022/07/16 09:55:58;;;;;;;7.45;1.48;;;21.00;99.90;;;;;;5072603;28;20542;-54
2022/07/16 09:58:24;;;;;;;7.85;1.08;;;20.70;1.00;;;;;;5073148;28;20040;-57
2022/07/16 10:00:51;;;;;;;6.03;1.20;;;20.70;99.90;;;;;;5073078;28;20036;-56
2022/07/16 10:03:18;;;;;;;5.82;1.23;;;22.00;99.90;;;;;;5073334;28;20036;-53
2022/07/16 10:05:43;;;;;;;7.85;1.50;;;20.40;99.90;;;;;;5072074;28;20118;-52
2022/07/16 10:08:09;;;;;;;9.65;1.25;;;20.20;99.90;;;;;;5073957;28;20580;-55
2022/07/16 10:10:35;;;;;;;7.55;1.25;;;20.30;99.90;;;;;;5072918;28;20129;-54
2022/07/16 10:13:01;;;;;;;7.22;1.17;;;20.30;1.00;;;;;;5072929;28;20071;-54
2022/07/16 10:15:27;;;;;;;8.75;1.30;;;20.20;99.90;;;;;;5072738;28;20186;-54
2022/07/16 10:17:54;;;;;;;12.27;2.85;;;19.80;1.00;;;;;;5056070;28;20036;-54
2022/07/16 10:20:20;;;;;;;6.15;1.00;;;20.40;1.00;;;;;;5075001;28;20055;-53
2022/07/16 10:22:48;;;;;;;8.85;1.30;;;19.20;1.00;;;;;;5072728;28;20036;-55
2022/07/16 10:25:22;;;;;;;6.80;1.15;;;19.40;1.00;;;;;;5074846;28;20036;-54
2022/07/16 10:27:48;;;;;;;11.13;1.63;;;19.70;1.00;;;;;;5057697;28;20127;-54
2022/07/16 10:30:18;;;;;;;5.60;0.93;;;19.90;1.00;;;;;;5057904;28;20060;-52
2022/07/16 10:32:59;;;;;;;8.57;1.05;;;19.50;1.00;;;;;;5076623;28;20306;-54
2022/07/16 10:35:33;;;;;;;10.60;1.67;;;19.40;1.00;;;;;;5077564;28;20126;-55
2022/07/16 10:38:07;;;;;;;5.32;1.00;;;19.80;1.00;;;;;;5077342;28;20054;-56
2022/07/16 10:40:37;;;;;;;7.95;1.20;;;20.20;1.00;;;;;;5076400;28;20155;-55
2022/07/16 10:43:14;;;;;;;4.80;1.20;;;20.50;1.00;;;;;;5076543;28;20791;-54
2022/07/16 10:45:53;;;;;;;4.85;0.82;;;21.10;1.00;;;;;;5075858;28;20048;-58
2022/07/16 10:48:19;;;;;;;20.85;5.55;;;21.40;1.00;;;;;;5078225;28;20613;-57
2022/07/16 10:51:13;;;;;;;7.05;1.10;;;21.50;1.00;;;;;;5058180;28;20032;-58
2022/07/16 10:53:57;;;;;;;7.03;0.90;;;21.80;99.90;;;;;;5077464;28;20075;-57
2022/07/16 10:56:51;;;;;;;6.93;1.05;;;21.50;99.90;;;;;;5076158;28;20040;-57
2022/07/16 10:59:20;;;;;;;5.10;1.17;;;20.90;99.90;;;;;;5077374;28;20700;-58
2022/07/16 11:01:48;;;;;;;5.78;1.10;;;20.90;99.90;;;;;;5076652;28;20040;-58
2022/07/16 11:04:15;;;;;;;5.75;1.08;;;21.20;99.90;;;;;;5058872;28;20063;-58
2022/07/16 11:06:47;;;;;;;8.43;1.02;;;21.20;99.90;;;;;;5076802;28;20024;-58
2022/07/16 11:09:13;;;;;;;4.35;1.02;;;21.10;99.90;;;;;;5076518;28;20032;-57
2022/07/16 11:11:41;;;;;;;6.63;1.30;;;20.70;99.90;;;;;;5057422;28;20052;-57
2022/07/16 11:14:09;;;;;;;9.25;1.52;;;20.00;99.90;;;;;;5075453;28;20082;-58
2022/07/16 11:16:47;;;;;;;7.82;1.60;;;20.00;99.90;;;;;;5076775;28;20036;-58
2022/07/16 11:19:13;;;;;;;6.03;1.42;;;20.00;99.90;;;;;;5076484;28;20048;-58
2022/07/16 11:21:54;;;;;;;7.20;1.10;;;20.40;1.00;;;;;;5075419;28;20081;-58
2022/07/16 11:24:20;;;;;;;4.93;1.00;;;20.70;99.90;;;;;;5076564;28;20047;-58
2022/07/16 11:26:48;;;;;;;4.10;0.85;;;20.30;99.90;;;;;;5076037;28;20272;-59
2022/07/16 11:29:13;;;;;;;7.95;1.40;;;20.60;99.90;;;;;;5075884;28;20123;-58
2022/07/16 11:31:40;;;;;;;7.65;1.27;;;21.00;99.90;;;;;;5075515;28;20568;-58
2022/07/16 11:34:09;;;;;;;6.05;1.98;;;20.50;99.90;;;;;;5076258;28;20619;-58
2022/07/16 11:36:43;;;;;;;9.75;1.30;;;21.90;99.90;;;;;;5076118;28;20078;-58
2022/07/16 11:39:16;;;;;;;8.45;1.17;;;20.80;99.90;;;;;;5076287;28;20040;-58
2022/07/16 11:41:47;;;;;;;6.68;1.15;;;20.10;99.90;;;;;;5057641;28;20052;-58
2022/07/16 11:44:14;;;;;;;4.95;1.10;;;19.90;1.00;;;;;;5091864;28;20053;-59
2022/07/16 11:46:50;;;;;;;8.88;1.70;;;19.90;1.00;;;;;;5077403;28;20036;-58
2022/07/16 11:49:27;;;;;;;6.82;1.42;;;20.00;1.00;;;;;;5076646;28;20036;-59
2022/07/16 11:51:56;;;;;;;7.88;1.10;;;20.10;1.00;;;;;;5076278;28;20040;-59
2022/07/16 11:54:22;;;;;;;7.65;1.23;;;20.60;1.00;;;;;;5075951;28;20114;-58
2022/07/16 11:56:48;;;;;;;8.25;1.10;;;20.90;1.00;;;;;;5076390;28;20048;-59
2022/07/16 11:59:28;;;;;;;8.48;1.15;;;20.20;99.90;;;;;;5075968;28;20043;-58
2022/07/16 12:02:04;;;;;;;8.13;1.30;;;20.10;99.90;;;;;;5076100;28;20048;-58
2022/07/16 12:04:37;;;;;;;4.22;0.90;;;20.40;99.90;;;;;;5076114;28;20489;-58
2022/07/16 12:07:08;;;;;;;7.43;1.20;;;21.00;1.00;;;;;;5075865;28;21682;-58
2022/07/16 12:09:37;;;;;;;5.45;1.13;;;21.30;1.00;;;;;;5075276;28;20062;-58
2022/07/16 12:12:06;;;;;;;9.55;1.15;;;21.00;1.00;;;;;;5075786;28;20052;-58
2022/07/16 12:14:48;;;;;;;8.65;1.20;;;20.70;99.90;;;;;;5075386;28;20035;-58
2022/07/16 12:17:17;;;;;;;;;;;19.50;1.00;;;;;;5075587;28;20040;-57
2022/07/16 12:19:42;;;;;;;5.45;1.20;;;20.60;99.90;;;;;;5076820;28;19931;-59
2022/07/16 12:22:08;;;;;;;6.43;1.58;;;20.60;1.00;;;;;;5075215;28;20036;-58
2022/07/16 12:24:34;;;;;;;7.55;1.55;;;20.60;1.00;;;;;;5075968;28;20024;-58
2022/07/16 12:26:59;;;;;;;5.45;0.82;;;20.20;1.00;;;;;;5074128;28;20131;-58
2022/07/16 12:29:39;;;;;;;7.47;1.33;;;19.80;99.90;;;;;;5074969;28;20143;-57
2022/07/16 12:32:05;;;;;;;7.65;1.48;;;19.70;1.00;;;;;;5074566;28;20040;-58
2022/07/16 12:34:43;;;;;;;7.20;1.67;;;19.90;1.00;;;;;;5090067;28;20047;-58
2022/07/16 12:37:13;;;;;;;6.85;1.30;;;20.20;1.00;;;;;;5075827;28;20512;-58
2022/07/16 12:39:40;;;;;;;8.20;1.40;;;20.70;1.00;;;;;;5075219;28;20122;-58
2022/07/16 12:42:06;;;;;;;10.98;1.73;;;21.60;1.00;;;;;;5074495;28;20064;-58
2022/07/16 12:44:32;;;;;;;7.88;1.23;;;20.70;1.00;;;;;;5074058;28;20041;-58
2022/07/16 12:46:58;;;;;;;5.07;1.52;;;20.70;1.00;;;;;;5074808;28;20471;-58
2022/07/16 12:49:26;;;;;;;9.77;2.08;;;21.80;1.00;;;;;;5075544;28;20040;-58
2022/07/16 12:51:56;;;;;;;8.57;1.52;;;21.00;1.00;;;;;;5075101;28;20086;-58
2022/07/16 12:54:23;;;;;;;4.97;1.17;;;21.10;1.00;;;;;;5073954;28;20040;-58